createdAt,value
2023-05-14T00:03:38.805Z,89.40
2023-05-14T00:07:21.324Z,89.30
2023-05-14T00:11:03.240Z,89.30
2023-05-14T00:14:44.964Z,90.00
2023-05-14T00:18:27.020Z,89.40
2023-05-14T00:22:09.273Z,89.40
2023-05-14T00:25:53.934Z,89.50
2023-05-14T00:29:36.818Z,89.60
2023-05-14T00:33:19.760Z,89.70
2023-05-14T00:37:01.670Z,89.90
2023-05-14T00:40:45.984Z,89.80
2023-05-14T00:44:27.836Z,89.80
2023-05-14T00:48:09.986Z,89.90
2023-05-14T00:51:52.921Z,89.80
2023-05-14T00:55:42.584Z,89.90
2023-05-14T00:59:24.431Z,90.60
2023-05-14T01:03:07.883Z,89.90
2023-05-14T01:07:14.879Z,90.00
2023-05-14T01:11:13.923Z,90.80
2023-05-14T01:15:06.559Z,90.60
2023-05-14T01:18:54.331Z,90.60
2023-05-14T01:22:40.019Z,90.10
2023-05-14T01:26:21.787Z,89.90
2023-05-14T01:30:31.914Z,89.80
2023-05-14T01:34:26.027Z,90.60
2023-05-14T01:38:13.104Z,90.20
2023-05-14T01:41:55.638Z,90.10
2023-05-14T01:45:41.142Z,90.10
2023-05-14T01:49:22.947Z,90.00
2023-05-14T01:53:04.765Z,89.40
2023-05-14T01:56:46.954Z,89.20
2023-05-14T02:00:28.669Z,89.00
2023-05-14T02:04:16.955Z,88.90
2023-05-14T02:07:59.684Z,89.20
2023-05-14T02:11:45.478Z,88.90
2023-05-14T02:15:27.964Z,88.90
2023-05-14T02:19:09.826Z,88.90
2023-05-14T02:22:51.757Z,89.00
2023-05-14T02:26:33.887Z,89.00
2023-05-14T02:30:16.454Z,89.10
2023-05-14T02:33:58.250Z,89.20
2023-05-14T02:37:40.432Z,89.10
2023-05-14T02:41:23.377Z,88.80
2023-05-14T02:45:05.795Z,89.10
2023-05-14T02:48:50.651Z,89.70
2023-05-14T02:52:33.900Z,90.30
2023-05-14T02:56:15.723Z,90.60
2023-05-14T02:59:57.504Z,90.70
2023-05-14T03:03:40.347Z,90.90
2023-05-14T03:07:22.672Z,90.90
2023-05-14T03:11:04.515Z,90.90
2023-05-14T03:14:46.253Z,91.20
2023-05-14T03:18:30.614Z,90.90
2023-05-14T03:22:12.525Z,90.90
2023-05-14T03:25:54.235Z,90.90
2023-05-14T03:29:36.008Z,91.30
2023-05-14T03:33:17.842Z,91.00
2023-05-14T03:36:59.680Z,91.00
2023-05-14T03:40:41.498Z,90.90
2023-05-14T03:44:23.207Z,90.90
2023-05-14T03:48:05.432Z,91.00
2023-05-14T03:51:47.381Z,91.00
2023-05-14T03:55:29.121Z,91.10
2023-05-14T03:59:10.941Z,91.10
2023-05-14T04:02:52.864Z,91.10
2023-05-14T04:06:34.709Z,91.10
2023-05-14T04:10:16.614Z,91.10
2023-05-14T04:13:58.332Z,91.30
2023-05-14T04:17:40.064Z,91.40
2023-05-14T04:21:21.921Z,91.50
2023-05-14T04:25:03.787Z,91.50
2023-05-14T04:28:45.805Z,91.40
2023-05-14T04:32:27.571Z,91.50
2023-05-14T04:36:09.493Z,91.60
2023-05-14T04:39:51.303Z,91.50
2023-05-14T04:43:33.038Z,91.60
2023-05-14T04:47:15.243Z,91.80
2023-05-14T04:50:56.991Z,91.80
2023-05-14T04:54:38.865Z,91.70
2023-05-14T04:58:20.619Z,91.90
2023-05-14T05:02:02.410Z,92.00
2023-05-14T05:05:44.123Z,91.90
2023-05-14T05:09:25.899Z,91.90
2023-05-14T05:13:07.681Z,92.00
2023-05-14T05:16:49.446Z,92.20
2023-05-14T05:20:31.294Z,92.20
2023-05-14T05:24:13.465Z,92.20
2023-05-14T05:27:55.272Z,92.20
2023-05-14T05:31:37.162Z,92.30
2023-05-14T05:35:19.010Z,92.30
2023-05-14T05:39:00.735Z,92.30
2023-05-14T05:42:42.717Z,92.40
2023-05-14T05:46:24.571Z,92.30
2023-05-14T05:50:07.479Z,92.30
2023-05-14T05:53:49.190Z,92.40
2023-05-14T05:57:31.046Z,92.30
2023-05-14T06:01:12.843Z,92.30
2023-05-14T06:04:54.554Z,92.30
2023-05-14T06:08:37.976Z,92.40
2023-05-14T06:12:19.812Z,92.50
2023-05-14T06:16:01.558Z,92.70
2023-05-14T06:19:43.312Z,92.60
2023-05-14T06:23:25.055Z,92.70
2023-05-14T06:27:07.397Z,92.80
2023-05-14T06:30:54.222Z,92.80
2023-05-14T06:34:36.051Z,93.00
2023-05-14T06:38:17.772Z,93.10
2023-05-14T06:41:59.487Z,93.10
2023-05-14T06:45:41.336Z,93.10
2023-05-14T06:49:23.460Z,93.10
2023-05-14T06:53:05.215Z,93.20
2023-05-14T06:56:47.095Z,93.10
2023-05-14T07:00:28.833Z,93.10
2023-05-14T07:04:10.812Z,93.00
2023-05-14T07:07:52.861Z,92.90
2023-05-14T07:11:34.645Z,92.80
2023-05-14T07:15:16.759Z,92.80
2023-05-14T07:18:58.941Z,92.80
2023-05-14T07:22:40.888Z,93.00
2023-05-14T07:26:24.499Z,93.00
2023-05-14T07:30:07.858Z,92.90
2023-05-14T07:33:49.621Z,92.70
2023-05-14T07:37:31.733Z,92.60
2023-05-14T07:41:13.532Z,92.50
2023-05-14T07:44:55.283Z,92.50
2023-05-14T07:48:37.140Z,92.50
2023-05-14T07:52:18.932Z,92.50
2023-05-14T07:56:00.962Z,92.50
2023-05-14T07:59:42.731Z,92.50
2023-05-14T08:03:24.543Z,92.50
2023-05-14T08:07:08.194Z,92.60
2023-05-14T08:10:50.816Z,92.50
2023-05-14T08:14:32.562Z,92.50
2023-05-14T08:18:14.283Z,92.40
2023-05-14T08:21:56.233Z,92.50
2023-05-14T08:25:38.256Z,92.50
2023-05-14T08:29:20.025Z,92.40
2023-05-14T08:33:01.964Z,92.40
2023-05-14T08:36:43.868Z,92.30
2023-05-14T08:40:26.797Z,92.20
2023-05-14T08:44:15.042Z,92.00
2023-05-14T08:47:58.637Z,91.90
2023-05-14T08:51:40.971Z,92.00
2023-05-14T08:55:22.889Z,92.10
2023-05-14T08:59:04.973Z,92.00
2023-05-14T09:02:47.798Z,92.10
2023-05-14T09:06:30.006Z,92.10
2023-05-14T09:10:11.813Z,91.80
2023-05-14T09:13:53.620Z,92.00
2023-05-14T09:17:36.102Z,92.00
2023-05-14T09:21:18.795Z,91.90
2023-05-14T09:25:09.681Z,91.70
2023-05-14T09:28:54.956Z,91.50
2023-05-14T09:32:44.055Z,91.80
2023-05-14T09:36:29.333Z,91.70
2023-05-14T09:40:12.478Z,91.80
2023-05-14T09:43:54.625Z,91.80
2023-05-14T09:47:40.537Z,91.70
2023-05-14T09:51:22.445Z,91.40
2023-05-14T09:55:04.505Z,91.50
2023-05-14T09:58:46.316Z,91.40
2023-05-14T10:02:37.678Z,91.40
2023-05-14T10:06:24.065Z,91.50
2023-05-14T10:10:08.597Z,91.10
2023-05-14T10:13:57.640Z,91.10
2023-05-14T10:17:43.998Z,90.80
2023-05-14T10:21:26.733Z,90.80
2023-05-14T10:25:08.751Z,90.80
2023-05-14T10:28:50.704Z,90.60
2023-05-14T10:32:33.222Z,90.60
2023-05-14T10:36:15.069Z,90.30
2023-05-14T10:40:06.039Z,89.90
2023-05-14T10:43:48.340Z,87.80
2023-05-14T10:47:31.527Z,88.60
2023-05-14T10:51:14.088Z,88.20
2023-05-14T10:54:57.008Z,87.50
2023-05-14T10:58:43.440Z,87.40
2023-05-14T11:02:34.978Z,87.00
2023-05-14T11:06:16.924Z,85.20
2023-05-14T11:10:02.292Z,86.30
2023-05-14T11:13:45.038Z,85.20
2023-05-14T11:17:28.940Z,86.00
2023-05-14T11:21:10.756Z,84.90
2023-05-14T11:24:53.704Z,85.10
2023-05-14T11:28:35.588Z,84.80
2023-05-14T11:32:18.144Z,84.70
2023-05-14T11:35:59.897Z,83.60
2023-05-14T11:39:49.863Z,83.70
2023-05-14T11:43:31.661Z,79.40
2023-05-14T11:47:13.472Z,82.20
2023-05-14T11:50:55.284Z,81.90
2023-05-14T11:54:37.753Z,81.70
2023-05-14T11:58:19.606Z,81.80
2023-05-14T12:02:02.195Z,81.60
2023-05-14T12:05:56.186Z,81.30
2023-05-14T12:09:41.995Z,79.60
2023-05-14T12:13:32.139Z,80.80
2023-05-14T12:17:16.237Z,78.80
2023-05-14T12:21:09.976Z,79.10
2023-05-14T12:24:59.546Z,76.60
2023-05-14T12:28:43.810Z,74.50
2023-05-14T12:32:26.785Z,76.90
2023-05-14T12:39:53.465Z,75.10
2023-05-14T12:43:35.348Z,74.30
2023-05-14T12:47:17.261Z,74.10
2023-05-14T12:50:59.122Z,73.50
2023-05-14T12:54:43.286Z,73.40
2023-05-14T12:58:25.040Z,73.30
2023-05-14T13:02:07.351Z,73.20
2023-05-14T13:05:49.438Z,72.50
2023-05-14T13:09:31.277Z,72.50
2023-05-14T13:13:15.350Z,72.40
2023-05-14T13:16:57.607Z,71.70
2023-05-14T13:20:40.722Z,70.90
2023-05-14T13:24:25.161Z,70.50
2023-05-14T13:28:07.028Z,70.40
2023-05-14T13:31:48.807Z,70.20
2023-05-14T13:35:30.603Z,70.10
2023-05-14T13:39:14.177Z,69.60
2023-05-14T13:42:56.224Z,69.70
2023-05-14T13:46:38.034Z,69.30
2023-05-14T13:50:21.680Z,69.10
2023-05-14T13:54:03.744Z,69.20
2023-05-14T13:57:45.574Z,69.20
2023-05-14T14:01:27.446Z,69.20
2023-05-14T14:05:09.633Z,69.00
2023-05-14T14:08:51.349Z,69.00
2023-05-14T14:12:33.161Z,68.70
2023-05-14T14:16:15.878Z,68.60
2023-05-14T14:19:57.661Z,68.80
2023-05-14T14:23:39.426Z,68.20
2023-05-14T14:27:21.127Z,67.90
2023-05-14T14:31:02.973Z,68.00
2023-05-14T14:34:44.898Z,67.80
2023-05-14T14:38:26.730Z,67.60
2023-05-14T14:42:08.840Z,67.40
2023-05-14T14:45:51.040Z,67.40
2023-05-14T14:49:32.795Z,67.30
2023-05-14T14:53:14.594Z,67.30
2023-05-14T14:56:56.429Z,67.50
2023-05-14T15:00:38.709Z,67.60
2023-05-14T15:04:20.484Z,68.30
2023-05-14T15:08:02.213Z,67.40
2023-05-14T15:11:44.766Z,67.50
2023-05-14T15:15:26.660Z,67.60
2023-05-14T15:19:08.543Z,67.70
2023-05-14T15:22:52.343Z,67.80
2023-05-14T15:26:34.308Z,67.40
2023-05-14T15:30:16.631Z,67.10
2023-05-14T15:33:58.865Z,66.70
2023-05-14T15:37:42.342Z,66.40
2023-05-14T15:41:26.103Z,65.40
2023-05-14T15:45:09.069Z,65.30
2023-05-14T15:48:50.833Z,65.30
2023-05-14T15:52:32.628Z,65.80
2023-05-14T15:56:14.536Z,66.00
2023-05-14T15:59:56.905Z,66.10
2023-05-14T16:03:38.702Z,65.50
2023-05-14T16:07:20.460Z,65.50
2023-05-14T16:11:02.447Z,65.60
2023-05-14T16:14:45.276Z,65.90
2023-05-14T16:18:27.313Z,66.20
2023-05-14T16:22:09.256Z,66.30
2023-05-14T16:25:51.212Z,66.40
2023-05-14T16:29:32.969Z,66.40
2023-05-14T16:33:15.148Z,66.80
2023-05-14T16:36:56.873Z,66.70
2023-05-14T16:40:39.006Z,66.70
2023-05-14T16:44:20.737Z,66.60
2023-05-14T16:48:03.004Z,66.60
2023-05-14T16:51:44.896Z,66.60
2023-05-14T16:55:26.817Z,66.70
2023-05-14T16:59:08.514Z,66.90
2023-05-14T17:02:54.001Z,66.80
2023-05-14T17:06:36.847Z,66.90
2023-05-14T17:10:18.881Z,66.90
2023-05-14T17:14:00.902Z,66.70
2023-05-14T17:17:42.738Z,66.40
2023-05-14T17:21:24.536Z,66.70
2023-05-14T17:25:06.926Z,66.50
2023-05-14T17:28:48.791Z,66.60
2023-05-14T17:32:31.453Z,66.50
2023-05-14T17:36:13.331Z,66.40
2023-05-14T17:39:55.240Z,66.80
2023-05-14T17:43:36.971Z,66.60
2023-05-14T17:47:20.542Z,66.70
2023-05-14T17:51:02.269Z,66.70
2023-05-14T17:54:44.147Z,66.60
2023-05-14T17:58:27.792Z,66.70
2023-05-14T18:02:09.663Z,66.90
2023-05-14T18:05:51.990Z,67.10
2023-05-14T18:09:33.829Z,67.30
2023-05-14T18:13:15.768Z,67.60
2023-05-14T18:16:57.635Z,67.90
2023-05-14T18:20:39.383Z,68.70
2023-05-14T18:24:22.116Z,68.10
2023-05-14T18:28:04.312Z,68.20
2023-05-14T18:31:46.174Z,68.20
2023-05-14T18:35:28.083Z,68.20
2023-05-14T18:39:09.962Z,68.10
2023-05-14T18:42:51.725Z,68.40
2023-05-14T18:46:33.491Z,68.00
2023-05-14T18:50:15.384Z,68.20
2023-05-14T18:53:57.179Z,68.40
2023-05-14T18:57:39.029Z,68.60
2023-05-14T19:01:21.382Z,68.90
2023-05-14T19:05:03.264Z,69.10
2023-05-14T19:08:45.833Z,69.30
2023-05-14T19:12:27.936Z,69.60
2023-05-14T19:16:11.029Z,69.70
2023-05-14T19:19:52.881Z,69.90
2023-05-14T19:23:34.604Z,70.10
2023-05-14T19:27:17.382Z,70.50
2023-05-14T19:30:59.561Z,70.90
2023-05-14T19:34:41.434Z,71.30
2023-05-14T19:38:23.150Z,71.30
2023-05-14T19:42:05.229Z,71.50
2023-05-14T19:45:47.138Z,71.50
2023-05-14T19:49:28.895Z,71.50
2023-05-14T19:53:11.240Z,72.10
2023-05-14T19:56:53.320Z,71.70
2023-05-14T20:00:37.134Z,71.70
2023-05-14T20:04:19.762Z,71.80
2023-05-14T20:08:01.794Z,72.00
2023-05-14T20:11:43.762Z,72.00
2023-05-14T20:15:26.430Z,71.90
2023-05-14T20:19:08.414Z,71.90
2023-05-14T20:22:50.556Z,72.00
2023-05-14T20:26:32.359Z,72.10
2023-05-14T20:30:14.370Z,72.20
2023-05-14T20:33:56.116Z,72.40
2023-05-14T20:37:37.965Z,72.50
2023-05-14T20:41:19.736Z,72.60
2023-05-14T20:45:01.741Z,72.70
2023-05-14T20:48:43.617Z,72.90
2023-05-14T20:52:25.358Z,73.00
2023-05-14T20:56:07.119Z,73.00
2023-05-14T20:59:49.207Z,73.00
2023-05-14T21:03:31.070Z,73.10
2023-05-14T21:07:12.955Z,73.20
2023-05-14T21:10:54.761Z,73.20
2023-05-14T21:14:37.037Z,73.30
2023-05-14T21:18:18.816Z,73.40
2023-05-14T21:22:00.800Z,73.50
2023-05-14T21:25:42.590Z,73.60
2023-05-14T21:29:24.494Z,73.70
2023-05-14T21:33:08.957Z,73.80
2023-05-14T21:37:00.254Z,74.20
2023-05-14T21:40:47.386Z,74.40
2023-05-14T21:44:30.200Z,75.10
2023-05-14T21:48:13.567Z,74.80
2023-05-14T21:51:56.114Z,74.90
2023-05-14T21:55:40.028Z,74.80
2023-05-14T21:59:23.392Z,74.90
2023-05-14T22:03:06.183Z,75.20
2023-05-14T22:06:48.847Z,75.20
2023-05-14T22:10:33.697Z,75.50
2023-05-14T22:14:15.548Z,75.70
2023-05-14T22:17:57.822Z,75.90
2023-05-14T22:21:40.281Z,76.20
2023-05-14T22:25:25.897Z,76.30
2023-05-14T22:29:08.322Z,76.60
2023-05-14T22:32:51.858Z,76.90
2023-05-14T22:36:43.356Z,77.20
2023-05-14T22:40:32.331Z,77.70
2023-05-14T22:44:14.706Z,78.20
2023-05-14T22:47:57.484Z,78.20
2023-05-14T22:51:39.385Z,78.60
2023-05-14T22:55:25.290Z,78.70
2023-05-14T22:59:12.483Z,78.80
2023-05-14T23:02:55.816Z,80.30
2023-05-14T23:06:37.753Z,79.60
2023-05-14T23:10:20.106Z,80.40
2023-05-14T23:14:03.534Z,80.20
2023-05-14T23:17:46.521Z,80.40
2023-05-14T23:21:28.432Z,80.70
2023-05-14T23:25:14.277Z,80.80
2023-05-14T23:28:56.910Z,81.50
2023-05-14T23:32:44.918Z,81.50
2023-05-14T23:36:26.716Z,83.20
2023-05-14T23:40:09.578Z,81.90
2023-05-14T23:43:54.166Z,82.50
2023-05-14T23:47:37.535Z,82.50
2023-05-14T23:51:23.085Z,83.10
2023-05-14T23:55:06.627Z,84.10
2023-05-14T23:58:48.496Z,83.70
